Time;durP1;ratioP1;P1;durP2;ratioP2;P2;SDS_P1;SDS_P2;PMS_P1;PMS_P2;Temp;Humidity;BMP_temperature;BMP_pressure;BME280_temperature;BME280_humidity;BME280_pressure;Samples;Min_cycle;Max_cycle;Signal;HPM_P1;HPM_P2
2022/02/13 00:00:00;;;;;;;31.60;14.00;;;;;;;-2.17;74.92;101042.77;209598;1315;140653;-73
2022/02/13 00:05:35;;;;;;;;;;;;;;;;;;;;;
2022/02/13 00:10:52;;;;;;;30.30;14.70;;;;;;;-2.39;74.98;101030.27;208842;1315;142322;-83
2022/02/13 00:16:01;;;;;;;35.40;17.60;;;;;;;-2.51;74.89;101025.98;209897;1315;139871;-85
2022/02/13 00:21:05;;;;;;;30.30;18.00;;;;;;;-2.61;75.10;101020.64;209071;1315;140657;-74
2022/02/13 00:26:18;;;;;;;22.00;12.50;;;;;;;-2.66;75.26;101013.75;209080;1315;141640;-70
2022/02/13 00:31:22;;;;;;;43.30;18.90;;;;;;;-2.71;75.23;101009.92;209712;1315;141020;-76
2022/02/13 00:36:36;;;;;;;;;;;;;;;;;;;;;
2022/02/13 00:41:40;;;;;;;36.10;17.70;;;;;;;-2.77;75.72;100995.30;209478;1315;140325;-82
2022/02/13 00:46:45;;;;;;;32.10;14.40;;;;;;;-2.75;75.71;100988.34;208631;1315;142392;-79
2022/02/13 00:51:49;;;;;;;28.60;14.60;;;;;;;-2.73;75.63;100980.52;209116;1315;141301;-82
2022/02/13 00:56:53;;;;;;;30.80;13.80;;;;;;;-2.67;75.52;100974.86;207642;1315;141935;-72
2022/02/13 01:02:00;;;;;;;30.00;15.00;;;;;;;-2.57;75.78;100968.65;209137;1315;140856;-76
2022/02/13 01:07:04;;;;;;;24.90;13.80;;;;;;;-2.49;75.95;100965.25;209484;1315;141621;-74
2022/02/13 01:12:08;;;;;;;26.10;13.10;;;;;;;-2.44;75.82;100954.69;207580;1315;141024;-73
2022/02/13 01:17:21;;;;;;;24.70;11.90;;;;;;;-2.39;75.86;100951.13;209096;1315;141323;-75
2022/02/13 01:22:25;;;;;;;27.90;12.90;;;;;;;-2.33;75.72;100938.19;209308;1315;140928;-71
2022/02/13 01:27:29;;;;;;;25.60;12.70;;;;;;;-2.26;75.55;100934.32;209438;1316;141330;-74
2022/02/13 01:32:33;;;;;;;25.70;12.20;;;;;;;-2.21;75.59;100925.27;209046;1315;141236;-71
2022/02/13 01:37:37;;;;;;;29.80;14.50;;;;;;;-2.19;75.49;100918.63;208796;1315;139793;-73
2022/02/13 01:42:40;;;;;;;20.90;11.40;;;;;;;-2.18;75.64;100912.61;209499;1315;140314;-74
2022/02/13 01:47:44;;;;;;;29.40;13.40;;;;;;;-2.14;75.73;100908.29;209346;1315;141793;-76
2022/02/13 01:52:50;;;;;;;25.20;13.00;;;;;;;-2.09;75.61;100905.80;208744;1315;141141;-88
2022/02/13 01:58:15;;;;;;;43.60;20.20;;;;;;;-2.07;75.67;100908.21;209227;1313;141443;-73
2022/02/13 02:03:47;;;;;;;28.40;15.00;;;;;;;-2.06;75.59;100902.58;209350;1315;140160;-78
2022/02/13 02:08:51;;;;;;;30.10;16.00;;;;;;;-2.06;75.51;100894.52;209327;1315;142047;-79
2022/02/13 02:13:55;;;;;;;28.10;13.70;;;;;;;-2.02;75.38;100893.68;209328;1316;142003;-68
2022/02/13 02:18:59;;;;;;;34.00;16.90;;;;;;;-1.98;75.58;100886.95;209395;1315;141603;-70
2022/02/13 02:24:06;;;;;;;26.60;14.00;;;;;;;-1.94;75.37;100879.31;209983;1315;140017;-71
2022/02/13 02:29:17;;;;;;;29.10;15.00;;;;;;;-1.93;75.44;100873.27;209472;1315;140591;-71
2022/02/13 02:34:23;;;;;;;26.70;14.40;;;;;;;-1.91;75.41;100873.30;209741;1315;139703;-71
2022/02/13 02:39:30;;;;;;;31.60;14.40;;;;;;;-1.89;75.31;100863.89;209632;1315;140059;-70
2022/02/13 02:50:54;;;;;;;25.70;12.60;;;;;;;-1.87;75.11;100848.06;209641;1315;140761;-74
2022/02/13 03:02:32;;;;;;;26.30;12.30;;;;;;;-1.90;74.96;100841.86;208688;1316;140274;-72
2022/02/13 03:07:36;;;;;;;22.30;10.60;;;;;;;-1.94;75.02;100827.55;209254;1315;142198;-73
2022/02/13 03:12:45;;;;;;;29.30;16.50;;;;;;;-1.96;74.82;100827.17;208789;1315;140713;-75
2022/02/13 03:24:23;;;;;;;24.90;11.90;;;;;;;-1.97;75.15;100817.02;209622;1315;140884;-74
2022/02/13 03:29:27;;;;;;;31.90;15.80;;;;;;;-2.00;75.02;100809.40;210004;1315;140366;-71
2022/02/13 03:34:32;;;;;;;20.00;9.70;;;;;;;-2.00;75.26;100803.16;209285;1315;141542;-68
2022/02/13 03:39:38;;;;;;;35.00;16.80;;;;;;;-2.01;75.01;100798.73;209099;1315;141931;-69
2022/02/13 03:44:42;;;;;;;34.50;16.50;;;;;;;-2.04;75.09;100799.66;209174;1315;142439;-71
2022/02/13 03:49:46;;;;;;;32.30;16.40;;;;;;;-2.02;75.05;100799.48;209217;1315;141829;-74
2022/02/13 03:54:53;;;;;;;30.00;14.20;;;;;;;-2.00;75.11;100793.37;209248;1315;142178;-69
2022/02/13 04:00:05;;;;;;;32.30;16.60;;;;;;;-1.98;75.10;100786.83;209710;1316;139531;-69
2022/02/13 04:05:12;;;;;;;33.60;14.70;;;;;;;-2.00;75.18;100781.52;208982;1316;140839;-72
2022/02/13 04:10:19;;;;;;;29.70;16.20;;;;;;;-2.03;75.02;100774.64;209412;1316;140400;-70
2022/02/13 04:15:24;;;;;;;40.80;16.90;;;;;;;-2.02;75.22;100762.21;209332;1316;142152;-71
2022/02/13 04:20:31;;;;;;;22.70;13.30;;;;;;;-2.02;75.18;100757.13;209427;1314;142243;-82
2022/02/13 04:25:40;;;;;;;35.30;16.10;;;;;;;-2.00;75.24;100747.60;209814;1316;139942;-74
2022/02/13 04:30:43;;;;;;;29.50;15.10;;;;;;;-1.97;75.17;100746.46;209539;1314;141623;-70
2022/02/13 04:35:53;;;;;;;30.00;16.40;;;;;;;-1.97;75.18;100743.17;209351;1316;140178;-70
2022/02/13 04:41:06;;;;;;;29.10;14.50;;;;;;;-1.99;74.98;100734.77;209017;1315;142221;-78
2022/02/13 04:46:25;;;;;;;31.50;16.40;;;;;;;-1.99;75.21;100727.09;208883;1316;140720;-74
2022/02/13 04:51:29;;;;;;;27.10;14.50;;;;;;;-1.97;75.33;100722.61;209684;1316;141127;-75
2022/02/13 04:56:39;;;;;;;32.30;18.10;;;;;;;-1.98;75.11;100727.17;209513;1315;140371;-74
2022/02/13 05:01:44;;;;;;;35.40;15.80;;;;;;;-1.97;75.07;100718.41;209371;1316;141494;-77
2022/02/13 05:06:53;;;;;;;27.40;15.50;;;;;;;-1.96;75.22;100714.70;209768;1315;140373;-77
2022/02/13 05:12:00;;;;;;;34.10;18.10;;;;;;;-1.95;75.19;100704.17;208897;1316;141745;-76
2022/02/13 05:17:07;;;;;;;29.30;15.60;;;;;;;-1.96;75.17;100697.58;208894;1316;141038;-76
2022/02/13 05:22:10;;;;;;;32.20;15.10;;;;;;;-1.96;75.15;100692.05;208142;1316;142800;-74
2022/02/13 05:27:37;;;;;;;33.70;15.60;;;;;;;-1.98;75.14;100683.98;209097;1314;140549;-73
2022/02/13 05:32:40;;;;;;;34.90;15.80;;;;;;;-2.01;75.13;100681.13;207403;1315;140054;-74
2022/02/13 05:37:56;;;;;;;32.30;14.90;;;;;;;-2.03;75.22;100683.20;208988;1315;140056;-71
2022/02/13 05:43:10;;;;;;;32.60;14.70;;;;;;;-2.05;75.24;100678.70;209416;1315;140540;-72
2022/02/13 05:48:15;;;;;;;41.90;16.00;;;;;;;-2.05;75.33;100676.38;208745;1316;141953;-70
2022/02/13 05:53:19;;;;;;;28.20;15.80;;;;;;;-2.04;75.33;100675.11;208759;1316;141024;-68
2022/02/13 05:58:34;;;;;;;;;;;;;;;;;;;;;
2022/02/13 06:03:47;;;;;;;32.10;17.60;;;;;;;-2.00;75.23;100680.21;208151;1315;141060;-72
2022/02/13 06:08:54;;;;;;;29.30;17.40;;;;;;;-1.98;75.24;100675.50;208093;1315;140982;-68
2022/02/13 06:13:58;;;;;;;38.80;24.40;;;;;;;-1.99;75.26;100668.05;209578;1315;141010;-77
2022/02/13 06:19:02;;;;;;;33.90;16.10;;;;;;;-1.98;75.25;100665.20;208853;1315;140431;-69
2022/02/13 06:24:09;;;;;;;29.90;15.90;;;;;;;-1.95;75.35;100664.10;209077;1316;448303;-77
2022/02/13 06:29:14;;;;;;;26.80;15.80;;;;;;;-1.89;75.31;100660.44;209560;1315;140793;-79
2022/02/13 06:34:24;;;;;;;32.10;18.50;;;;;;;-1.84;75.17;100656.52;209490;1315;140371;-71
2022/02/13 06:39:28;;;;;;;28.80;14.40;;;;;;;-1.75;75.18;100650.81;209139;1315;141330;-77
2022/02/13 06:44:36;;;;;;;26.90;14.40;;;;;;;-1.65;75.01;100638.45;209494;1312;140756;-76
2022/02/13 06:50:10;;;;;;;32.20;15.90;;;;;;;-1.52;75.07;100638.33;209215;1311;140586;-77
2022/02/13 06:55:15;;;;;;;27.50;14.10;;;;;;;-1.39;74.97;100628.80;208887;1316;142047;-73
2022/02/13 07:00:23;;;;;;;28.70;13.90;;;;;;;-1.29;74.79;100627.08;209563;1315;141015;-73
2022/02/13 07:05:43;;;;;;;32.80;16.20;;;;;;;-0.96;74.74;100617.98;209610;1313;140089;-72
2022/02/13 07:10:54;;;;;;;27.10;16.20;;;;;;;-0.43;74.36;100609.91;208968;1316;140141;-75
2022/02/13 07:15:59;;;;;;;28.90;15.40;;;;;;;0.14;74.31;100604.87;208634;1314;140706;-73
2022/02/13 07:21:42;;;;;;;33.90;15.70;;;;;;;0.86;73.71;100606.90;209772;1313;140512;-82
2022/02/13 07:26:49;;;;;;;30.20;15.20;;;;;;;1.78;73.20;100601.80;208162;1313;141224;-79
2022/02/13 07:31:56;;;;;;;24.50;15.70;;;;;;;2.64;72.72;100595.25;208497;1313;140899;-83
2022/02/13 07:37:03;;;;;;;30.70;16.90;;;;;;;3.12;71.70;100593.36;210237;1316;140738;-81
2022/02/13 07:42:07;;;;;;;25.70;14.40;;;;;;;3.38;70.95;100584.48;209774;1316;139678;-83
2022/02/13 07:47:14;;;;;;;29.70;16.00;;;;;;;3.43;70.20;100577.41;209318;1315;139483;-87
2022/02/13 07:52:22;;;;;;;33.60;17.40;;;;;;;3.16;69.63;100579.17;209449;1313;139996;-86
2022/02/13 07:57:41;;;;;;;32.70;16.30;;;;;;;3.12;69.55;100582.79;209202;1313;140084;-82
2022/02/13 08:03:19;;;;;;;30.00;14.30;;;;;;;3.25;69.46;100570.27;209465;1314;139649;-81
2022/02/13 08:08:23;;;;;;;20.40;15.40;;;;;;;3.28;69.45;100568.69;209913;1314;140499;-81
2022/02/13 08:13:39;;;;;;;20.50;11.70;;;;;;;3.17;69.13;100566.45;209241;1314;141196;-75
2022/02/13 08:18:45;;;;;;;26.80;17.20;;;;;;;3.03;68.79;100562.48;209425;1315;139967;-77
2022/02/13 08:23:57;;;;;;;23.70;15.40;;;;;;;2.88;68.85;100559.33;209286;1315;152063;-80
2022/02/13 08:35:30;;;;;;;20.90;13.80;;;;;;;2.57;68.77;100552.37;207985;1315;140847;-75
2022/02/13 08:40:51;;;;;;;;;;;;;;;;;;;;;
2022/02/13 08:45:56;;;;;;;29.80;14.30;;;;;;;2.43;69.28;100549.34;209483;1315;141909;-79
2022/02/13 08:51:03;;;;;;;21.90;13.10;;;;;;;2.42;69.13;100546.61;208940;1316;141360;-80
2022/02/13 08:56:18;;;;;;;17.10;11.30;;;;;;;2.43;69.46;100553.73;208962;1312;141857;-79
2022/02/13 09:01:28;;;;;;;15.00;10.10;;;;;;;2.50;69.32;100539.77;209224;1315;140227;-71
2022/02/13 09:06:49;;;;;;;19.60;12.60;;;;;;;2.62;69.42;100543.59;209040;1315;140271;-71
2022/02/13 09:11:54;;;;;;;19.10;12.70;;;;;;;2.76;69.44;100535.11;209764;1311;140812;-73
2022/02/13 09:17:08;;;;;;;19.70;12.30;;;;;;;2.82;69.24;100527.92;209528;1314;141615;-75
2022/02/13 09:22:13;;;;;;;19.60;12.40;;;;;;;2.84;69.17;100517.56;209348;1313;141501;-75
2022/02/13 09:27:16;;;;;;;16.20;11.30;;;;;;;2.91;69.13;100509.77;209659;1313;140284;-77
2022/02/13 09:32:21;;;;;;;20.50;12.30;;;;;;;3.02;69.27;100499.75;209950;1313;140441;-71
2022/02/13 09:37:41;;;;;;;21.90;12.50;;;;;;;3.10;69.24;100492.34;209516;1310;140340;-74
2022/02/13 09:42:50;;;;;;;22.80;13.40;;;;;;;3.20;69.06;100489.20;209703;1314;141414;-72
2022/02/13 09:47:57;;;;;;;16.50;9.50;;;;;;;3.32;69.13;100487.83;209694;1313;140430;-75
2022/02/13 09:53:04;;;;;;;;;;;;;;;3.39;68.74;100478.71;210143;1313;140744;-75
2022/02/13 09:58:13;;;;;;;14.50;9.30;;;;;;;3.47;69.10;100467.89;210171;1313;126246;-73
2022/02/13 10:03:21;;;;;;;14.90;8.80;;;;;;;3.58;68.77;100463.45;209902;1314;140325;-80
2022/02/13 10:08:53;;;;;;;16.00;9.20;;;;;;;3.68;68.58;100457.77;209720;1311;141368;-85
2022/02/13 10:14:18;;;;;;;10.20;7.00;;;;;;;3.79;68.41;100452.45;209336;1314;141283;-70
2022/02/13 10:19:33;;;;;;;;;;;;;;;;;;;;;
2022/02/13 10:24:52;;;;;;;11.70;8.70;;;;;;;3.95;68.17;100433.48;209922;1313;140691;-85
2022/02/13 10:36:52;;;;;;;10.10;8.30;;;;;;;4.22;68.04;100416.27;208551;1317;140485;-73
2022/02/13 10:48:41;;;;;;;12.00;7.20;;;;;;;4.64;67.65;100399.48;207578;1322;140020;-85
2022/02/13 10:53:46;;;;;;;12.40;7.60;;;;;;;4.75;67.11;100396.45;209416;1313;141875;-77
2022/02/13 10:59:20;;;;;;;10.60;7.00;;;;;;;4.89;67.12;100382.59;210070;1316;140003;-84
2022/02/13 11:04:27;;;;;;;7.70;6.80;;;;;;;5.08;67.02;100376.80;210046;1313;139163;-87
2022/02/13 11:10:04;;;;;;;9.50;6.00;;;;;;;5.17;66.58;100367.97;210169;1311;139778;-88
2022/02/13 11:15:21;;;;;;;10.80;7.60;;;;;;;5.18;66.23;100362.05;209557;1315;140645;-80
2022/02/13 11:20:29;;;;;;;8.00;5.80;;;;;;;5.27;66.15;100355.11;209468;1313;141012;-81
2022/02/13 11:26:14;;;;;;;8.20;6.50;;;;;;;5.48;66.05;100350.34;209770;1313;139282;-79
2022/02/13 11:31:55;;;;;;;13.10;6.80;;;;;;;5.68;65.75;100339.09;210493;1313;140360;-77
2022/02/13 11:37:11;;;;;;;7.10;5.80;;;;;;;5.78;65.19;100332.52;209235;1315;140540;-78
2022/02/13 11:42:46;;;;;;;8.10;5.40;;;;;;;5.92;65.42;100322.12;209824;1313;140081;-77
2022/02/13 11:47:57;;;;;;;10.20;6.10;;;;;;;6.00;64.78;100315.48;209811;1313;139247;-82
2022/02/13 11:53:07;;;;;;;6.60;4.90;;;;;;;6.09;64.55;100311.79;209480;1313;140450;-79
2022/02/13 11:58:26;;;;;;;;;;;;;;;;;;;;;
2022/02/13 12:04:27;;;;;;;8.20;6.20;;;;;;;6.17;64.22;100289.17;210366;1321;139401;-79
2022/02/13 12:09:31;;;;;;;7.70;5.70;;;;;;;6.19;63.89;100283.45;209373;1316;140229;-78
2022/02/13 12:21:15;;;;;;;8.20;5.70;;;;;;;6.35;64.02;100271.77;208905;1314;139691;-82
2022/02/13 12:26:40;;;;;;;;;;;;;;;6.41;63.27;100260.76;209435;1313;140983;-76
2022/02/13 12:32:13;;;;;;;8.90;4.90;;;;;;;6.37;63.30;100251.21;209758;1318;125942;-76
2022/02/13 12:37:17;;;;;;;9.00;6.50;;;;;;;6.41;62.75;100237.30;209880;1312;139524;-79
2022/02/13 12:42:34;;;;;;;7.40;4.60;;;;;;;6.43;62.82;100229.22;209136;1313;139212;-81
2022/02/13 12:47:45;;;;;;;6.60;5.00;;;;;;;6.49;62.37;100225.42;209500;1313;142338;-80
2022/02/13 12:52:57;;;;;;;5.90;5.30;;;;;;;6.56;62.59;100219.11;209912;1314;139525;-80
2022/02/13 12:58:05;;;;;;;6.00;4.50;;;;;;;6.59;62.02;100218.06;209462;1313;139174;-78
2022/02/13 13:03:13;;;;;;;5.20;4.60;;;;;;;6.60;62.16;100216.40;209221;1314;140261;-81
2022/02/13 13:08:50;;;;;;;5.00;4.50;;;;;;;6.67;61.73;100210.73;210299;1313;139718;-82
2022/02/13 13:14:07;;;;;;;7.10;4.70;;;;;;;6.73;61.84;100203.20;210197;1314;141699;-72
2022/02/13 13:19:22;;;;;;;6.00;5.20;;;;;;;6.77;61.95;100199.75;209442;1313;140630;-71
2022/02/13 13:24:31;;;;;;;7.10;4.40;;;;;;;6.78;61.59;100195.59;209832;1316;138750;-76
2022/02/13 13:29:43;;;;;;;6.00;5.00;;;;;;;6.78;61.52;100192.73;209370;1314;139249;-75
2022/02/13 13:35:14;;;;;;;4.70;3.90;;;;;;;6.81;61.06;100192.71;210299;1313;140238;-75
2022/02/13 13:40:29;;;;;;;6.20;4.80;;;;;;;6.76;60.80;100194.09;209302;1313;139185;-82
2022/02/13 13:45:46;;;;;;;5.90;4.50;;;;;;;6.72;60.40;100188.16;209708;1314;138986;-82
2022/02/13 13:57:22;;;;;;;5.90;4.10;;;;;;;6.66;60.76;100180.33;208404;1316;140753;-85
2022/02/13 14:03:05;;;;;;;6.80;4.00;;;;;;;6.68;60.63;100179.35;209707;1313;139825;-70
2022/02/13 14:08:11;;;;;;;5.10;4.50;;;;;;;6.65;60.56;100173.02;209554;1313;140783;-78
2022/02/13 14:13:18;;;;;;;6.00;4.70;;;;;;;6.55;59.80;100166.90;209599;1311;140375;-70
2022/02/13 14:18:23;;;;;;;4.30;3.80;;;;;;;6.47;60.21;100157.45;209385;1311;140497;-73
2022/02/13 14:23:29;;;;;;;5.60;4.70;;;;;;;6.42;60.33;100156.27;206387;1313;5542485;-70
2022/02/13 14:28:36;;;;;;;6.40;4.30;;;;;;;6.34;59.78;100149.71;210166;1311;139818;-72
2022/02/13 14:39:28;;;;;;;4.60;3.20;;;;;;;6.12;59.79;100156.04;210172;1309;125934;-75
2022/02/13 14:44:38;;;;;;;6.70;4.90;;;;;;;6.06;59.92;100151.73;209664;1313;159596;-73
2022/02/13 14:49:51;;;;;;;5.70;3.60;;;;;;;5.97;59.91;100143.00;210372;1313;139337;-79
2022/02/13 14:54:57;;;;;;;5.10;4.20;;;;;;;5.85;59.71;100137.86;210118;1313;140360;-75
2022/02/13 15:00:05;;;;;;;4.00;3.60;;;;;;;5.71;59.68;100128.04;210142;1314;141464;-73
2022/02/13 15:05:27;;;;;;;6.80;3.90;;;;;;;5.60;59.76;100122.75;211869;1308;138986;-77
2022/02/13 15:15:44;;;;;;;7.20;5.60;;;;;;;5.30;60.16;100122.73;212891;1313;636244;-72
2022/02/13 15:21:06;;;;;;;7.40;4.60;;;;;;;5.14;60.05;100125.56;212931;1314;657271;-79
2022/02/13 15:26:11;;;;;;;7.50;5.20;;;;;;;4.93;60.32;100129.38;210342;1289;140094;-87
2022/02/13 15:31:17;;;;;;;9.10;6.10;;;;;;;4.75;60.42;100135.02;211156;1288;499262;-83
2022/02/13 15:36:21;;;;;;;5.80;4.60;;;;;;;4.56;60.61;100141.23;212330;1287;139538;-83
2022/02/13 15:41:27;;;;;;;5.10;3.20;;;;;;;4.37;60.94;100134.58;212230;1287;139900;-77
2022/02/13 15:46:31;;;;;;;5.70;4.80;;;;;;;4.17;61.01;100138.36;211177;1287;139244;-74
2022/02/13 15:51:35;;;;;;;11.70;5.80;;;;;;;4.01;61.34;100143.65;211613;1287;140307;-75
2022/02/13 15:56:40;;;;;;;7.30;4.40;;;;;;;3.83;61.60;100142.57;213425;1287;138620;-78
2022/02/13 16:01:47;;;;;;;8.90;4.30;;;;;;;3.68;61.62;100145.30;212333;1286;139152;-78
2022/02/13 16:06:51;;;;;;;11.20;6.10;;;;;;;3.53;61.98;100135.45;212256;1288;139714;-77
2022/02/13 16:11:57;;;;;;;11.00;7.40;;;;;;;3.41;62.26;100132.30;211810;1288;139976;-75
2022/02/13 16:17:01;;;;;;;7.90;5.60;;;;;;;3.30;62.33;100131.85;211968;1288;141359;-76
2022/02/13 16:22:06;;;;;;;10.00;6.00;;;;;;;3.17;62.42;100135.30;212416;1288;139398;-82
2022/02/13 16:27:12;;;;;;;15.80;8.80;;;;;;;3.02;62.67;100141.02;211897;1288;139051;-83
2022/02/13 16:32:16;;;;;;;12.80;7.70;;;;;;;2.90;62.80;100134.55;212445;1288;140285;-86
2022/02/13 16:37:22;;;;;;;11.40;7.20;;;;;;;2.80;62.85;100129.31;210773;1288;141536;-83
2022/02/13 16:42:27;;;;;;;14.50;7.30;;;;;;;2.69;63.49;100130.30;212772;1280;140298;-86
2022/02/13 16:47:30;;;;;;;13.50;9.00;;;;;;;2.57;63.36;100128.09;213785;1280;139611;-73
2022/02/13 16:52:34;;;;;;;20.70;10.20;;;;;;;2.46;63.43;100118.98;213335;1281;138682;-81
2022/02/13 16:57:38;;;;;;;15.50;8.90;;;;;;;2.38;63.79;100104.65;214635;1280;139625;-73
2022/02/13 17:02:43;;;;;;;15.50;7.70;;;;;;;2.29;63.94;100109.13;214577;1281;140216;-78
2022/02/13 17:07:48;;;;;;;19.40;11.20;;;;;;;2.20;63.89;100114.59;213793;1280;139600;-77
2022/02/13 17:12:53;;;;;;;18.40;9.80;;;;;;;2.11;64.23;100110.34;213945;1280;140488;-80
2022/02/13 17:17:59;;;;;;;15.50;8.80;;;;;;;2.08;64.23;100101.05;214549;1281;139924;-82
2022/02/13 17:23:03;;;;;;;16.00;9.20;;;;;;;2.05;64.75;100091.77;214608;1281;140034;-83
2022/02/13 17:28:14;;;;;;;18.30;10.90;;;;;;;2.00;64.57;100081.95;213588;1280;140343;-81
2022/02/13 17:33:21;;;;;;;223.90;101.60;;;;;;;1.93;64.68;100073.95;212956;1281;141731;-83
2022/02/13 17:38:26;;;;;;;35.60;17.70;;;;;;;1.86;64.83;100069.28;212868;1281;139532;-83
2022/02/13 17:43:31;;;;;;;16.50;9.70;;;;;;;1.79;65.04;100067.68;213696;1281;139868;-81
2022/02/13 17:48:38;;;;;;;17.50;9.50;;;;;;;1.71;65.37;100059.59;213479;1280;139926;-75
2022/02/13 17:53:43;;;;;;;12.10;8.00;;;;;;;1.64;65.24;100052.08;212514;1279;140431;-74
2022/02/13 17:58:50;;;;;;;20.50;9.60;;;;;;;1.58;65.46;100048.58;212701;1279;139968;-72
2022/02/13 18:03:55;;;;;;;13.20;7.90;;;;;;;1.53;65.53;100048.80;213603;1279;141791;-73
2022/02/13 18:09:00;;;;;;;17.00;9.00;;;;;;;1.52;65.69;100043.27;212529;1280;143010;-72
2022/02/13 18:14:04;;;;;;;21.80;10.90;;;;;;;1.53;65.67;100042.54;213970;1279;140364;-76
2022/02/13 18:19:09;;;;;;;12.90;7.10;;;;;;;1.52;65.61;100045.56;213406;1279;142279;-78
2022/02/13 18:24:13;;;;;;;14.20;7.50;;;;;;;1.51;66.02;100039.73;213795;1281;141349;-78
2022/02/13 18:29:18;;;;;;;13.60;6.80;;;;;;;1.49;65.76;100031.76;214818;1280;141131;-71
2022/02/13 18:34:23;;;;;;;13.80;7.40;;;;;;;1.45;65.59;100027.10;213285;1279;140196;-74
2022/02/13 18:39:27;;;;;;;10.60;6.60;;;;;;;1.42;66.13;100030.28;215096;1279;140259;-77
2022/02/13 18:44:33;;;;;;;9.30;6.50;;;;;;;1.38;66.23;100026.33;215129;1280;140254;-75
2022/02/13 18:49:38;;;;;;;11.30;7.90;;;;;;;1.35;65.81;100017.66;214823;1280;140230;-74
2022/02/13 18:54:43;;;;;;;10.70;7.50;;;;;;;1.35;65.96;100009.48;214657;1280;141377;-77
2022/02/13 18:59:48;;;;;;;12.20;7.40;;;;;;;1.36;66.18;99998.29;212634;1281;142963;-74
2022/02/13 19:04:53;;;;;;;14.30;9.00;;;;;;;1.34;66.23;100004.42;214068;1281;142329;-76
2022/02/13 19:09:58;;;;;;;13.00;7.90;;;;;;;1.31;66.60;100005.32;215045;1279;142196;-79
2022/02/13 19:15:03;;;;;;;14.00;7.60;;;;;;;1.27;66.41;100004.50;213722;1280;139796;-78
2022/02/13 19:20:08;;;;;;;7.80;6.10;;;;;;;1.23;66.54;100012.55;213928;1281;140051;-77
2022/02/13 19:25:13;;;;;;;14.10;7.90;;;;;;;1.17;66.23;100011.96;214774;1281;139659;-77
2022/02/13 19:30:18;;;;;;;13.80;8.60;;;;;;;1.13;66.32;100008.39;213642;1281;139628;-72
2022/02/13 19:35:25;;;;;;;21.30;8.40;;;;;;;1.10;66.53;100008.23;213251;1281;140289;-68
2022/02/13 19:40:30;;;;;;;17.50;9.00;;;;;;;1.11;66.62;100011.31;214569;1281;141462;-77
2022/02/13 19:45:35;;;;;;;15.70;7.70;;;;;;;1.08;66.54;100016.87;213430;1281;140477;-70
2022/02/13 19:50:40;;;;;;;11.90;7.60;;;;;;;1.05;66.96;100015.63;213251;1281;138742;-67
2022/02/13 19:55:45;;;;;;;11.10;6.50;;;;;;;0.98;66.97;100017.33;214234;1281;141347;-77
2022/02/13 20:00:53;;;;;;;11.60;7.30;;;;;;;0.91;66.73;100015.14;212249;1281;140452;-74
2022/02/13 20:05:58;;;;;;;12.80;7.30;;;;;;;0.85;67.10;100012.70;212629;1279;141558;-69
2022/02/13 20:11:03;;;;;;;14.00;8.60;;;;;;;0.78;67.12;100014.27;213931;1281;140461;-71
2022/02/13 20:16:10;;;;;;;14.20;8.50;;;;;;;0.72;67.56;100014.73;213427;1281;207722;-75
2022/02/13 20:21:17;;;;;;;10.20;6.80;;;;;;;0.68;67.74;100019.23;214818;1281;140133;-85
2022/02/13 20:26:21;;;;;;;11.50;8.00;;;;;;;0.68;67.45;100013.48;214195;1281;140260;-73
2022/02/13 20:31:30;;;;;;;16.00;8.70;;;;;;;0.68;67.20;100006.30;213832;1281;140247;-73
2022/02/13 20:36:35;;;;;;;14.80;7.70;;;;;;;0.67;67.61;99993.08;213622;1281;139302;-72
2022/02/13 20:41:40;;;;;;;13.20;7.40;;;;;;;0.64;67.62;99985.01;213603;1281;142070;-72
2022/02/13 20:46:45;;;;;;;14.80;8.40;;;;;;;0.60;67.65;99983.55;213812;1280;140231;-68
2022/02/13 20:51:50;;;;;;;17.30;13.80;;;;;;;0.55;67.32;99976.21;213244;1280;140501;-68
2022/02/13 20:56:55;;;;;;;17.70;8.50;;;;;;;0.51;67.84;99972.51;214185;1281;140923;-71
2022/02/13 21:02:00;;;;;;;15.90;8.20;;;;;;;0.48;67.57;99971.71;212722;1281;141099;-75
2022/02/13 21:07:04;;;;;;;13.90;7.50;;;;;;;0.47;67.73;99974.70;214827;1281;141237;-72
2022/02/13 21:12:09;;;;;;;10.20;6.30;;;;;;;0.43;68.21;99967.35;215137;1281;140278;-75
2022/02/13 21:17:14;;;;;;;12.50;8.50;;;;;;;0.42;67.86;99960.56;215185;1281;139568;-79
2022/02/13 21:22:18;;;;;;;11.80;7.80;;;;;;;0.39;68.03;99959.41;215181;1281;139546;-79
2022/02/13 21:27:22;;;;;;;11.40;8.00;;;;;;;0.38;68.20;99960.23;214846;1280;141458;-81
2022/02/13 21:32:25;;;;;;;13.50;8.70;;;;;;;0.37;68.10;99948.27;214235;1280;139569;-74
2022/02/13 21:37:30;;;;;;;13.10;8.20;;;;;;;0.37;68.13;99942.48;213147;1280;139596;-73
2022/02/13 21:42:34;;;;;;;13.10;9.20;;;;;;;0.36;68.02;99943.11;213436;1280;139172;-81
2022/02/13 21:47:38;;;;;;;23.10;9.90;;;;;;;0.33;68.19;99947.65;214358;1280;139982;-69
2022/02/13 21:52:43;;;;;;;14.40;7.20;;;;;;;0.31;68.01;99943.63;213187;1279;140137;-70
2022/02/13 21:57:47;;;;;;;12.70;7.60;;;;;;;0.31;68.34;99936.96;213847;1281;139639;-73
2022/02/13 22:02:54;;;;;;;12.30;7.10;;;;;;;0.29;68.22;99932.48;213296;1281;139548;-78
2022/02/13 22:07:59;;;;;;;13.20;6.40;;;;;;;0.27;68.18;99933.80;213624;1280;139396;-78
2022/02/13 22:13:05;;;;;;;15.40;6.90;;;;;;;0.22;68.11;99930.64;212742;1281;139030;-75
2022/02/13 22:18:08;;;;;;;11.90;7.40;;;;;;;0.17;68.04;99926.80;213607;1278;140703;-82
2022/02/13 22:23:12;;;;;;;12.10;7.70;;;;;;;0.13;68.14;99915.20;213106;1280;139151;-75
2022/02/13 22:28:19;;;;;;;11.80;7.00;;;;;;;0.10;68.15;99907.27;212831;1280;139390;-75
2022/02/13 22:33:23;;;;;;;16.30;6.80;;;;;;;0.09;68.22;99899.57;212620;1280;141077;-74
2022/02/13 22:38:28;;;;;;;14.30;7.10;;;;;;;0.06;68.10;99912.43;213551;1280;139150;-71
2022/02/13 22:43:33;;;;;;;10.50;5.90;;;;;;;0.02;68.05;99918.30;213680;1280;138965;-67
2022/02/13 22:48:38;;;;;;;10.40;5.30;;;;;;;-0.02;67.84;99925.16;213782;1280;139254;-67
2022/02/13 22:53:43;;;;;;;9.70;4.80;;;;;;;-0.05;67.85;99924.92;214095;1280;139842;-70
2022/02/13 22:58:48;;;;;;;9.80;5.60;;;;;;;-0.09;67.79;99924.30;213081;1279;138807;-75
2022/02/13 23:14:38;;;;;;;9.50;4.90;;;;;;;-0.12;67.70;99931.10;212991;1279;140497;-75
2022/02/13 23:19:42;;;;;;;13.50;5.40;;;;;;;-0.12;67.62;99928.13;215158;1280;139629;-70
2022/02/13 23:24:48;;;;;;;191.20;70.90;;;;;;;-0.12;67.32;99924.77;214284;1279;140279;-69
2022/02/13 23:29:52;;;;;;;49.00;43.60;;;;;;;-0.12;67.27;99916.23;214514;1281;139793;-70
2022/02/13 23:35:00;;;;;;;9.50;8.50;;;;;;;-0.14;67.40;99909.48;214705;1279;139804;-80
2022/02/13 23:40:04;;;;;;;;;;;;;;;-0.13;67.14;99904.36;215057;1280;141837;-76
2022/02/13 23:45:08;;;;;;;12.20;6.80;;;;;;;-0.15;67.09;99896.34;215140;1280;128016;-74
2022/02/13 23:50:12;;;;;;;12.10;6.40;;;;;;;-0.14;66.98;99887.11;214838;1279;141710;-78
2022/02/13 23:55:16;;;;;;;9.60;7.00;;;;;;;-0.13;66.81;99876.40;213157;1279;143124;-73
